Time;durP1;ratioP1;P1;durP2;ratioP2;P2;SDS_P1;SDS_P2;PMS_P1;PMS_P2;Temp;Humidity;BMP_temperature;BMP_pressure;BME280_temperature;BME280_humidity;BME280_pressure;Samples;Min_cycle;Max_cycle;Signal;HPM_P1;HPM_P2
2022/11/10 00:00:14;;;;;;;15.73;4.00;;;;;;;9.25;100.00;101625.28;4985319;28;20046;-68
2022/11/10 00:02:42;;;;;;;13.65;3.55;;;;;;;9.21;100.00;101632.22;4986411;28;20038;-67
2022/11/10 00:05:07;;;;;;;;;;;;;;;9.24;100.00;101627.19;4987139;28;20030;-68
2022/11/10 00:07:33;;;;;;;9.93;3.08;;;;;;;9.19;100.00;101626.13;4984955;28;20270;-68
2022/11/10 00:09:58;;;;;;;10.82;3.78;;;;;;;9.19;100.00;101635.19;4986495;28;20045;-67
2022/11/10 00:12:23;;;;;;;14.75;4.20;;;;;;;9.16;100.00;101632.81;4986231;28;20373;-67
2022/11/10 00:17:36;;;;;;;11.18;3.40;;;;;;;9.11;100.00;101627.09;4973709;28;20049;-67
2022/11/10 00:20:03;;;;;;;12.07;3.13;;;;;;;9.14;100.00;101629.44;4990019;28;20114;-67
2022/11/10 00:22:28;;;;;;;12.85;3.58;;;;;;;9.13;100.00;101624.19;4979609;28;20038;-68
2022/11/10 00:24:54;;;;;;;11.20;3.47;;;;;;;9.09;100.00;101632.78;4990671;28;20042;-68
2022/11/10 00:27:19;;;;;;;12.18;3.78;;;;;;;9.09;100.00;101634.69;4990042;28;20040;-68
2022/11/10 00:29:44;;;;;;;10.18;3.28;;;;;;;9.04;100.00;101637.19;4990828;28;20081;-67
2022/11/10 00:32:09;;;;;;;11.25;3.42;;;;;;;9.06;100.00;101641.41;4989638;28;20038;-67
2022/11/10 00:34:35;;;;;;;11.93;3.60;;;;;;;9.03;100.00;101646.47;4989929;28;20054;-68
2022/11/10 00:37:01;;;;;;;10.60;3.47;;;;;;;9.01;100.00;101648.53;4988161;28;20035;-67
2022/11/10 00:39:26;;;;;;;11.05;3.40;;;;;;;9.02;100.00;101658.44;4988346;28;20112;-68
2022/11/10 00:41:51;;;;;;;12.48;3.72;;;;;;;8.99;100.00;101658.88;4990236;28;20045;-67
2022/11/10 00:44:17;;;;;;;11.75;3.42;;;;;;;8.99;100.00;101662.44;4990316;28;20027;-67
2022/11/10 00:46:42;;;;;;;11.68;3.42;;;;;;;8.96;100.00;101670.22;4989545;28;20438;-67
2022/11/10 00:49:07;;;;;;;11.52;3.47;;;;;;;8.96;100.00;101667.47;4989459;28;20030;-67
2022/11/10 00:51:32;;;;;;;13.68;3.53;;;;;;;8.94;100.00;101664.94;4989961;28;20060;-66
2022/11/10 00:53:58;;;;;;;13.18;3.45;;;;;;;8.90;100.00;101665.53;4988199;28;20030;-67
2022/11/10 00:56:24;;;;;;;10.10;3.47;;;;;;;8.95;100.00;101671.28;4989332;28;20026;-66
2022/11/10 00:58:49;;;;;;;10.10;3.15;;;;;;;8.92;100.00;101660.69;4988494;28;20034;-67
2022/11/10 01:01:16;;;;;;;14.50;3.97;;;;;;;8.91;100.00;101661.75;4989182;28;20065;-68
2022/11/10 01:03:41;;;;;;;12.15;3.72;;;;;;;8.89;100.00;101672.91;4988608;28;20030;-68
2022/11/10 01:06:09;;;;;;;12.55;3.47;;;;;;;8.92;100.00;101677.13;4988706;28;20378;-67
2022/11/10 01:08:35;;;;;;;11.90;3.40;;;;;;;8.89;100.00;101667.44;4988524;28;20026;-68
2022/11/10 01:11:06;;;;;;;13.40;3.83;;;;;;;8.88;100.00;101667.66;4989946;28;20054;-67
2022/11/10 01:13:32;;;;;;;11.77;4.25;;;;;;;8.86;100.00;101673.31;4990877;28;20038;-67
2022/11/10 01:16:06;;;;;;;12.85;3.53;;;;;;;8.86;100.00;101672.47;4987814;28;20113;-68
2022/11/10 01:18:32;;;;;;;12.13;4.10;;;;;;;8.84;100.00;101683.63;4988476;28;20575;-66
2022/11/10 01:20:57;;;;;;;11.10;3.30;;;;;;;8.86;100.00;101688.91;4988813;28;20034;-67
2022/11/10 01:23:22;;;;;;;12.23;3.60;;;;;;;8.84;100.00;101689.94;4987059;28;20037;-67
2022/11/10 01:25:47;;;;;;;11.40;3.70;;;;;;;8.84;100.00;101697.31;4989872;28;20030;-67
2022/11/10 01:28:13;;;;;;;12.25;3.58;;;;;;;8.84;100.00;101713.75;4987164;28;20036;-67
2022/11/10 01:30:38;;;;;;;11.75;3.58;;;;;;;8.83;100.00;101704.69;4988587;28;20535;-68
2022/11/10 01:33:03;;;;;;;7.53;3.30;;;;;;;8.79;100.00;101702.56;4987900;28;20041;-68
2022/11/10 01:35:28;;;;;;;14.40;3.63;;;;;;;8.80;100.00;101712.44;4989249;28;20031;-67
2022/11/10 01:37:54;;;;;;;13.90;4.95;;;;;;;8.80;100.00;101720.66;4988007;28;20023;-67
2022/11/10 01:40:19;;;;;;;11.80;3.72;;;;;;;8.83;100.00;101715.66;4989130;28;20031;-69
2022/11/10 01:42:52;;;;;;;14.18;4.40;;;;;;;8.83;100.00;101721.13;4988381;28;20033;-67
2022/11/10 01:45:23;;;;;;;12.63;3.50;;;;;;;8.82;100.00;101711.22;4989181;28;20023;-67
2022/11/10 01:47:49;;;;;;;16.90;3.95;;;;;;;8.81;100.00;101708.66;4988595;28;20508;-68
2022/11/10 01:50:15;;;;;;;12.18;3.45;;;;;;;8.78;100.00;101711.81;4989076;28;20040;-68
2022/11/10 01:52:46;;;;;;;14.30;3.50;;;;;;;8.78;100.00;101712.66;4987576;28;20026;-68
2022/11/10 01:55:12;;;;;;;17.95;3.95;;;;;;;8.79;100.00;101714.34;4988924;28;20139;-68
2022/11/10 01:57:39;;;;;;;15.40;3.72;;;;;;;8.77;100.00;101707.38;4988058;28;20026;-67
2022/11/10 02:00:05;;;;;;;14.20;4.00;;;;;;;8.77;100.00;101710.97;4988295;28;20125;-67
2022/11/10 02:02:36;;;;;;;11.20;3.60;;;;;;;8.76;100.00;101712.00;4987665;28;20308;-68
2022/11/10 02:05:03;;;;;;;13.88;4.30;;;;;;;8.75;100.00;101704.81;4986715;28;20042;-68
2022/11/10 02:07:30;;;;;;;14.02;3.78;;;;;;;8.78;100.00;101714.56;4987181;28;20042;-67
2022/11/10 02:09:56;;;;;;;16.73;4.60;;;;;;;8.83;100.00;101706.59;4987419;28;20121;-67
2022/11/10 02:12:35;;;;;;;13.48;3.75;;;;;;;8.84;100.00;101711.88;5081904;22;20151;-64
2022/11/10 02:15:02;;;;;;;15.20;3.58;;;;;;;8.79;100.00;101714.34;5047174;28;20029;-65
2022/11/10 02:17:27;;;;;;;12.85;3.55;;;;;;;8.79;100.00;101713.50;5045833;28;20060;-65
2022/11/10 02:19:59;;;;;;;13.77;3.78;;;;;;;8.80;100.00;101710.56;5046122;28;20068;-67
2022/11/10 02:22:24;;;;;;;13.02;4.00;;;;;;;8.82;100.00;101724.94;5045147;28;20025;-67
2022/11/10 02:24:50;;;;;;;11.80;4.03;;;;;;;8.81;100.00;101736.91;5044396;28;20032;-67
2022/11/10 02:27:15;;;;;;;12.70;3.90;;;;;;;8.80;100.00;101737.94;5046444;28;20040;-67
2022/11/10 02:29:40;;;;;;;14.43;3.90;;;;;;;8.79;100.00;101736.25;5045513;28;20041;-67
2022/11/10 02:32:06;;;;;;;13.82;3.60;;;;;;;8.74;100.00;101746.97;5046229;28;20419;-68
2022/11/10 02:34:31;;;;;;;13.82;3.60;;;;;;;8.75;100.00;101753.28;5046372;28;20108;-66
2022/11/10 02:36:56;;;;;;;15.50;3.60;;;;;;;8.77;100.00;101757.53;5044251;28;20266;-66
2022/11/10 02:39:21;;;;;;;13.50;4.22;;;;;;;8.74;100.00;101760.66;5044870;28;20033;-68
2022/11/10 02:41:47;;;;;;;12.63;3.40;;;;;;;8.77;100.00;101773.13;5046474;28;20021;-66
2022/11/10 02:44:12;;;;;;;16.15;3.92;;;;;;;8.73;100.00;101772.66;5046196;28;20029;-67
2022/11/10 02:46:37;;;;;;;14.98;4.78;;;;;;;8.72;100.00;101770.97;5046474;28;20029;-68
2022/11/10 02:49:03;;;;;;;13.65;3.53;;;;;;;8.71;100.00;101763.78;5044431;28;20120;-67
2022/11/10 02:51:28;;;;;;;14.73;3.80;;;;;;;8.70;100.00;101773.03;5045695;28;20463;-66
2022/11/10 02:53:53;;;;;;;16.30;4.15;;;;;;;8.71;100.00;101769.25;5044871;28;20040;-67
2022/11/10 02:56:19;;;;;;;13.80;3.72;;;;;;;8.71;100.00;101762.94;5044811;28;20028;-66
2022/11/10 02:58:44;;;;;;;15.18;3.92;;;;;;;8.68;100.00;101766.94;5044527;28;20119;-66
2022/11/10 03:01:09;;;;;;;14.10;4.05;;;;;;;8.68;100.00;101768.81;5045502;28;20040;-66
2022/11/10 03:03:35;;;;;;;12.73;4.10;;;;;;;8.65;100.00;101769.19;5043883;28;20025;-66
2022/11/10 03:06:00;;;;;;;11.13;3.90;;;;;;;8.62;100.00;101775.06;5044971;28;20057;-67
2022/11/10 03:08:26;;;;;;;13.38;3.20;;;;;;;8.62;100.00;101775.94;5044777;28;20033;-68
2022/11/10 03:10:53;;;;;;;12.52;3.78;;;;;;;8.63;100.00;101780.34;5046363;28;20496;-67
2022/11/10 03:13:18;;;;;;;13.03;4.13;;;;;;;8.60;100.00;101785.38;5044162;28;20104;-67
2022/11/10 03:15:46;;;;;;;18.02;3.90;;;;;;;8.55;100.00;101784.06;5045227;28;20112;-67
2022/11/10 03:18:11;;;;;;;15.40;4.10;;;;;;;8.52;100.00;101781.72;5045206;28;20033;-67
2022/11/10 03:20:37;;;;;;;15.00;4.07;;;;;;;8.51;100.00;101782.75;5045433;28;20040;-68
2022/11/10 03:23:03;;;;;;;13.45;4.13;;;;;;;8.50;100.00;101789.25;5044522;28;20033;-67
2022/11/10 03:25:28;;;;;;;16.48;3.85;;;;;;;8.51;100.00;101796.44;5044977;28;20041;-66
2022/11/10 03:27:53;;;;;;;24.30;4.70;;;;;;;8.54;100.00;101803.41;5045392;28;20040;-67
2022/11/10 03:30:19;;;;;;;14.90;5.20;;;;;;;8.52;100.00;101802.78;5045489;28;20715;-66
2022/11/10 03:32:44;;;;;;;12.30;3.80;;;;;;;8.50;100.00;101805.69;5045965;28;20044;-66
2022/11/10 03:35:10;;;;;;;12.57;4.30;;;;;;;8.49;100.00;101808.63;5045995;28;20116;-67
2022/11/10 03:37:35;;;;;;;15.77;4.10;;;;;;;8.49;100.00;101814.94;5044016;28;20029;-66
2022/11/10 03:40:00;;;;;;;15.38;3.72;;;;;;;8.47;100.00;101818.94;5044780;28;20411;-67
2022/11/10 03:42:26;;;;;;;20.02;4.93;;;;;;;8.47;100.00;101822.53;5045022;28;20068;-67
2022/11/10 03:44:51;;;;;;;16.38;4.03;;;;;;;8.48;100.00;101826.09;5045086;28;20058;-68
2022/11/10 03:47:16;;;;;;;16.45;4.28;;;;;;;8.43;100.00;101831.31;5045714;28;20080;-66
2022/11/10 03:49:41;;;;;;;14.88;4.07;;;;;;;8.42;100.00;101835.94;5044060;28;20108;-67
2022/11/10 03:52:07;;;;;;;15.57;4.38;;;;;;;8.41;100.00;101836.09;5047949;28;20473;-66
2022/11/10 03:54:32;;;;;;;12.32;4.32;;;;;;;8.39;100.00;101838.19;5047861;28;20039;-66
2022/11/10 03:56:57;;;;;;;16.02;4.97;;;;;;;8.37;100.00;101848.50;5047884;28;20021;-66
2022/11/10 03:59:22;;;;;;;18.42;4.95;;;;;;;8.38;100.00;101839.25;5048340;28;20083;-66
2022/11/10 04:01:48;;;;;;;14.90;3.88;;;;;;;8.37;100.00;101840.28;5048267;28;20059;-67
2022/11/10 04:09:41;;;;;;;16.85;3.47;;;;;;;8.34;100.00;101844.22;5048905;28;20087;-68
2022/11/10 04:17:34;;;;;;;21.95;4.30;;;;;;;8.44;100.00;101857.63;5047392;28;20493;-67
2022/11/10 04:20:01;;;;;;;19.63;5.32;;;;;;;8.33;100.00;101869.91;5048432;28;20120;-67
2022/11/10 04:25:10;;;;;;;16.38;4.30;;;;;;;8.29;100.00;101877.63;5058745;28;20086;-68
2022/11/10 04:27:37;;;;;;;19.02;4.80;;;;;;;8.28;100.00;101886.03;5047102;28;20033;-67
2022/11/10 04:30:03;;;;;;;14.75;4.68;;;;;;;8.29;100.00;101895.94;5048079;28;20045;-66
2022/11/10 04:32:28;;;;;;;23.98;4.38;;;;;;;8.29;100.00;101902.25;5047988;28;20459;-66
2022/11/10 04:34:54;;;;;;;19.27;4.68;;;;;;;8.31;100.00;101907.53;5048914;28;20021;-66
2022/11/10 04:37:19;;;;;;;19.50;5.05;;;;;;;8.30;100.00;101914.06;5046021;28;20096;-67
2022/11/10 04:39:44;;;;;;;14.98;4.40;;;;;;;8.30;100.00;101911.31;5049141;28;20142;-67
2022/11/10 04:42:10;;;;;;;15.30;4.35;;;;;;;8.29;100.00;101915.94;5047206;28;20032;-67
2022/11/10 04:44:35;;;;;;;18.50;4.57;;;;;;;8.28;100.00;101921.63;5048682;28;20352;-68
2022/11/10 04:47:00;;;;;;;21.35;4.88;;;;;;;8.29;100.00;101924.16;5048624;28;20040;-67
2022/11/10 04:49:25;;;;;;;18.08;5.10;;;;;;;8.24;100.00;101928.50;5048120;28;20032;-67
2022/11/10 04:51:51;;;;;;;24.17;4.35;;;;;;;8.25;100.00;101930.19;5047273;28;20385;-67
2022/11/10 04:54:16;;;;;;;18.48;4.63;;;;;;;8.25;100.00;101930.19;5047111;28;20547;-67
2022/11/10 04:56:41;;;;;;;19.02;5.07;;;;;;;8.28;100.00;101938.03;5046927;28;20021;-67
2022/11/10 04:59:07;;;;;;;17.95;5.57;;;;;;;8.25;100.00;101944.72;5048034;28;20037;-67
2022/11/10 05:01:32;;;;;;;20.45;5.10;;;;;;;8.19;100.00;101948.22;5045040;28;20383;-67
2022/11/10 05:03:57;;;;;;;21.90;5.18;;;;;;;8.20;100.00;101943.59;5048158;28;20115;-66
2022/11/10 05:06:23;;;;;;;22.33;5.30;;;;;;;8.24;100.00;101947.66;5047181;28;20029;-67
2022/11/10 05:08:49;;;;;;;18.88;4.60;;;;;;;8.23;100.00;101944.09;5046691;28;20044;-67
2022/11/10 05:11:14;;;;;;;25.77;5.43;;;;;;;8.25;100.00;101943.88;5047202;28;20045;-67
2022/11/10 05:13:40;;;;;;;21.00;5.75;;;;;;;8.26;100.00;101953.78;5046004;28;20463;-66
2022/11/10 05:16:06;;;;;;;18.40;5.47;;;;;;;8.26;100.00;101951.94;5047909;28;20431;-67
2022/11/10 05:18:31;;;;;;;17.65;4.72;;;;;;;8.24;100.00;101951.25;5047396;28;20060;-67
2022/11/10 05:20:57;;;;;;;19.38;4.90;;;;;;;8.23;100.00;101949.56;5046563;28;20037;-66
2022/11/10 05:23:37;;;;;;;23.30;4.82;;;;;;;8.28;100.00;101940.78;5033072;28;20025;-67
2022/11/10 05:26:12;;;;;;;20.77;5.63;;;;;;;8.22;100.00;101947.88;5048025;28;20601;-67
2022/11/10 05:28:39;;;;;;;18.40;4.57;;;;;;;8.18;100.00;101951.16;5046762;28;20483;-67
2022/11/10 05:31:04;;;;;;;22.38;5.53;;;;;;;8.15;100.00;101955.09;5046250;28;20037;-67
2022/11/10 05:33:31;;;;;;;17.90;5.00;;;;;;;8.13;100.00;101951.72;5046798;28;20032;-67
2022/11/10 05:35:56;;;;;;;18.23;5.05;;;;;;;8.13;100.00;101951.72;5047325;28;20550;-66
2022/11/10 05:38:22;;;;;;;22.42;5.10;;;;;;;8.11;100.00;101952.94;5045609;28;20044;-67
2022/11/10 05:40:47;;;;;;;23.20;5.70;;;;;;;8.13;100.00;101956.34;5047946;28;20021;-67
2022/11/10 05:43:13;;;;;;;20.45;5.95;;;;;;;8.11;100.00;101959.28;5047287;28;20029;-67
2022/11/10 05:45:38;;;;;;;21.42;4.93;;;;;;;8.07;100.00;101964.28;5046897;28;20364;-67
2022/11/10 05:48:03;;;;;;;17.52;4.90;;;;;;;8.10;100.00;101967.66;5046847;28;20108;-67
2022/11/10 05:50:29;;;;;;;21.33;4.88;;;;;;;8.10;100.00;101973.97;5040634;28;20037;-67
2022/11/10 05:52:55;;;;;;;20.17;5.50;;;;;;;8.06;100.00;101979.00;5044947;28;20154;-67
2022/11/10 05:55:23;;;;;;;23.30;6.47;;;;;;;8.05;100.00;101984.63;5061600;28;20454;-67
2022/11/10 05:57:50;;;;;;;21.27;5.60;;;;;;;8.04;100.00;101978.31;5066840;28;20035;-67
2022/11/10 06:00:20;;;;;;;24.98;5.20;;;;;;;8.02;100.00;101985.03;5044125;28;20024;-66
2022/11/10 06:02:55;;;;;;;20.83;5.20;;;;;;;8.02;100.00;101977.66;5043262;28;20436;-67
2022/11/10 06:05:21;;;;;;;20.45;5.00;;;;;;;8.00;100.00;101987.91;5044929;28;20131;-66
2022/11/10 06:07:46;;;;;;;19.85;5.70;;;;;;;8.01;100.00;101994.28;5044905;28;20117;-67
2022/11/10 06:10:11;;;;;;;24.67;6.20;;;;;;;8.00;100.00;101995.28;5045863;28;20792;-66
2022/11/10 06:12:36;;;;;;;27.75;5.22;;;;;;;8.01;100.00;102003.31;5044116;28;20075;-66
2022/11/10 06:15:03;;;;;;;18.75;6.35;;;;;;;8.02;100.00;102002.28;5043019;28;20064;-67
2022/11/10 06:17:28;;;;;;;22.50;5.30;;;;;;;8.01;100.00;102005.22;5043352;28;20491;-66
2022/11/10 06:19:53;;;;;;;19.55;5.40;;;;;;;8.00;100.00;102003.47;5043250;28;20025;-67
2022/11/10 06:22:19;;;;;;;18.38;5.13;;;;;;;8.02;100.00;102006.91;5040650;28;20028;-66
2022/11/10 06:24:44;;;;;;;18.88;4.72;;;;;;;8.01;100.00;102002.47;5041463;28;20534;-66
2022/11/10 06:27:09;;;;;;;19.60;4.80;;;;;;;7.97;100.00;102001.13;5042666;28;20120;-66
2022/11/10 06:29:34;;;;;;;18.65;4.80;;;;;;;7.95;100.00;101997.72;5040992;28;20017;-66
2022/11/10 06:32:00;;;;;;;21.63;5.22;;;;;;;7.96;100.00;102015.84;5040411;28;20040;-67
2022/11/10 06:34:25;;;;;;;17.88;5.47;;;;;;;7.95;100.00;102019.59;5042504;28;20059;-66
2022/11/10 06:36:50;;;;;;;18.20;5.85;;;;;;;7.94;100.00;102024.22;5042286;28;20041;-67
2022/11/10 06:39:15;;;;;;;18.60;4.90;;;;;;;7.94;100.00;102034.31;5043026;28;20502;-66
2022/11/10 06:41:41;;;;;;;18.45;5.00;;;;;;;7.93;100.00;102027.16;5044476;28;20021;-66
2022/11/10 06:44:06;;;;;;;21.73;5.40;;;;;;;7.94;100.00;102045.25;5043640;28;20158;-67
2022/11/10 06:46:31;;;;;;;23.00;4.85;;;;;;;7.95;100.00;102046.97;5043286;28;20025;-66
2022/11/10 06:48:57;;;;;;;18.73;5.22;;;;;;;7.99;100.00;102053.78;5042963;28;20119;-66
2022/11/10 06:51:22;;;;;;;14.43;4.80;;;;;;;7.94;100.00;102056.22;5043038;28;20021;-66
2022/11/10 06:53:47;;;;;;;19.13;4.78;;;;;;;7.94;100.00;102064.41;5042159;28;20017;-67
2022/11/10 06:56:12;;;;;;;21.70;5.38;;;;;;;7.92;100.00;102070.09;5043619;28;20025;-66
2022/11/10 06:58:38;;;;;;;21.58;4.93;;;;;;;7.95;100.00;102077.06;5041247;28;20029;-66
2022/11/10 07:01:03;;;;;;;27.90;5.75;;;;;;;7.96;100.00;102065.94;5042773;28;20548;-68
2022/11/10 07:03:28;;;;;;;18.55;4.68;;;;;;;7.95;100.00;102069.69;5039256;28;20035;-66
2022/11/10 07:05:54;;;;;;;16.90;5.03;;;;;;;7.95;100.00;102069.69;5041152;28;20033;-67
2022/11/10 07:08:20;;;;;;;17.48;4.95;;;;;;;7.97;100.00;102070.38;5039703;28;20201;-67
2022/11/10 07:10:51;;;;;;;20.95;5.07;;;;;;;7.99;100.00;102086.59;5044054;28;20021;-67
2022/11/10 07:13:17;;;;;;;18.65;5.10;;;;;;;7.99;100.00;102083.88;5043285;28;20021;-66
2022/11/10 07:15:42;;;;;;;18.77;4.90;;;;;;;7.98;100.00;102093.97;5041921;28;20364;-66
2022/11/10 07:18:07;;;;;;;17.20;4.60;;;;;;;8.03;100.00;102093.41;5043644;28;20029;-67
2022/11/10 07:20:34;;;;;;;16.15;4.57;;;;;;;8.02;100.00;102100.78;5042536;28;20029;-66
2022/11/10 07:23:01;;;;;;;18.30;5.05;;;;;;;8.04;100.00;102106.06;5041308;28;20024;-66
2022/11/10 07:25:28;;;;;;;22.85;4.88;;;;;;;8.07;100.00;102119.38;5042104;28;20087;-66
2022/11/10 07:27:58;;;;;;;18.02;4.80;;;;;;;8.11;100.00;102120.72;5048129;28;20029;-67
2022/11/10 07:30:25;;;;;;;18.27;5.43;;;;;;;8.13;100.00;102129.59;5047776;28;20031;-67
2022/11/10 07:33:05;;;;;;;20.33;5.03;;;;;;;8.17;100.00;102138.28;5047213;28;20153;-66
2022/11/10 07:35:33;;;;;;;21.90;5.05;;;;;;;8.17;100.00;102128.19;5047788;28;20039;-67
2022/11/10 07:38:01;;;;;;;21.42;5.20;;;;;;;8.21;100.00;102129.53;5044168;28;20096;-66
2022/11/10 07:40:27;;;;;;;19.80;5.10;;;;;;;8.28;100.00;102126.91;5047741;28;20029;-66
2022/11/10 07:42:52;;;;;;;21.15;5.38;;;;;;;8.28;100.00;102130.47;5047505;28;20033;-67
2022/11/10 07:45:17;;;;;;;18.40;5.00;;;;;;;8.32;100.00;102130.97;5047580;28;20024;-66
2022/11/10 07:47:43;;;;;;;16.98;4.97;;;;;;;8.35;100.00;102130.59;5047050;28;20108;-65
2022/11/10 07:50:08;;;;;;;20.48;5.82;;;;;;;8.39;100.00;102131.13;5046833;28;20226;-66
2022/11/10 07:52:33;;;;;;;21.23;5.13;;;;;;;8.44;100.00;102128.66;5045615;28;20139;-66
2022/11/10 07:54:59;;;;;;;16.40;5.07;;;;;;;8.49;100.00;102126.22;5047070;28;20079;-65
2022/11/10 07:57:24;;;;;;;17.42;5.05;;;;;;;8.57;100.00;102128.91;5046382;28;20028;-67
2022/11/10 07:59:49;;;;;;;17.55;4.78;;;;;;;8.63;100.00;102139.09;5047111;28;20036;-69
2022/11/10 08:02:15;;;;;;;19.92;4.88;;;;;;;8.72;100.00;102154.41;5047736;28;20404;-67
2022/11/10 08:04:40;;;;;;;18.52;5.07;;;;;;;8.81;100.00;102152.44;5046058;28;20096;-66
2022/11/10 08:07:05;;;;;;;19.98;4.90;;;;;;;8.96;100.00;102161.50;5046271;28;20021;-67
2022/11/10 08:09:30;;;;;;;14.75;4.40;;;;;;;9.09;100.00;102167.19;5043889;28;20313;-66
2022/11/10 08:11:56;;;;;;;13.60;4.22;;;;;;;9.42;100.00;102171.44;5034243;28;20132;-67
2022/11/10 08:14:21;;;;;;;17.80;4.72;;;;;;;9.74;100.00;102171.00;5043992;28;20465;-66
2022/11/10 08:16:46;;;;;;;16.65;4.63;;;;;;;10.16;100.00;102176.75;5042434;28;20040;-66
2022/11/10 08:19:12;;;;;;;15.15;4.53;;;;;;;10.62;100.00;102174.47;5042182;28;20119;-67
2022/11/10 08:21:37;;;;;;;15.20;3.53;;;;;;;10.95;99.21;102174.72;5044527;28;20029;-67
2022/11/10 08:24:02;;;;;;;22.38;4.25;;;;;;;11.16;97.60;102173.81;5046538;28;20051;-67
2022/11/10 08:26:28;;;;;;;14.65;4.55;;;;;;;11.35;96.36;102180.44;5046474;28;20071;-66
2022/11/10 08:28:53;;;;;;;13.60;3.30;;;;;;;11.39;95.14;102182.59;5044362;28;20477;-67
2022/11/10 08:31:19;;;;;;;13.85;3.88;;;;;;;11.46;94.93;102184.56;5046847;28;20840;-67
2022/11/10 08:33:44;;;;;;;16.25;3.53;;;;;;;11.63;93.52;102178.50;5045979;28;20453;-67
2022/11/10 08:36:09;;;;;;;16.13;3.38;;;;;;;12.24;91.07;102172.13;5045034;28;20033;-67
2022/11/10 08:38:35;;;;;;;14.32;3.70;;;;;;;12.77;87.54;102179.56;5040784;28;20029;-66
2022/11/10 08:41:00;;;;;;;15.63;4.57;;;;;;;13.23;84.69;102169.38;5045356;28;20036;-67
2022/11/10 08:43:27;;;;;;;13.10;4.15;;;;;;;13.26;83.92;102179.13;5044885;28;20035;-66
2022/11/10 08:45:55;;;;;;;14.63;4.07;;;;;;;13.06;83.81;102186.56;5034527;28;20387;-66
2022/11/10 08:48:20;;;;;;;13.73;3.53;;;;;;;13.19;83.39;102187.38;5045033;28;20074;-67
2022/11/10 08:50:48;;;;;;;12.10;3.95;;;;;;;13.56;80.91;102198.78;5044885;28;20025;-68
2022/11/10 08:53:16;;;;;;;11.60;4.00;;;;;;;14.36;78.82;102196.47;5041654;28;20504;-66
2022/11/10 08:55:43;;;;;;;15.57;4.13;;;;;;;15.03;74.60;102194.03;5044488;28;20483;-67
2022/11/10 08:58:36;;;;;;;13.50;3.67;;;;;;;15.83;74.46;102196.78;5040833;28;20421;-67
2022/11/10 09:01:06;;;;;;;13.32;4.03;;;;;;;16.03;70.77;102186.28;5040047;28;20041;-66
2022/11/10 09:03:32;;;;;;;13.65;3.95;;;;;;;16.46;68.09;102193.53;5046245;28;20025;-66
2022/11/10 09:05:57;;;;;;;16.98;4.43;;;;;;;16.42;67.85;102206.16;5045221;28;20100;-66
2022/11/10 09:08:22;;;;;;;12.27;3.05;;;;;;;16.55;66.73;102202.34;5044710;28;20033;-66
2022/11/10 09:10:50;;;;;;;14.40;3.30;;;;;;;16.69;65.79;102205.78;5044761;28;20056;-66
2022/11/10 09:13:16;;;;;;;13.85;2.80;;;;;;;16.89;65.04;102209.09;5046145;28;20082;-66
2022/11/10 09:15:43;;;;;;;11.23;3.13;;;;;;;17.34;64.02;102219.59;5045724;28;20029;-66
2022/11/10 09:18:10;;;;;;;12.07;3.28;;;;;;;17.56;62.41;102228.16;5044157;28;20439;-67
2022/11/10 09:20:36;;;;;;;11.43;3.20;;;;;;;17.91;61.68;102233.66;5045796;28;20025;-67
2022/11/10 09:23:07;;;;;;;13.57;3.85;;;;;;;18.27;60.93;102232.44;5043839;28;20021;-66
2022/11/10 09:25:32;;;;;;;12.23;3.65;;;;;;;18.27;59.84;102224.09;5034276;28;20029;-66
2022/11/10 09:27:58;;;;;;;14.52;3.50;;;;;;;18.25;59.64;102228.19;5042104;28;20040;-66
2022/11/10 09:30:24;;;;;;;11.90;3.42;;;;;;;18.36;59.62;102221.78;5045051;28;20021;-66
2022/11/10 09:32:53;;;;;;;9.60;3.25;;;;;;;18.52;59.46;102225.66;5045809;28;20111;-67
2022/11/10 09:35:19;;;;;;;10.10;3.40;;;;;;;18.54;58.11;102229.03;5045698;28;20036;-67
2022/11/10 09:37:44;;;;;;;12.05;3.25;;;;;;;18.98;56.95;102227.34;5043412;28;20466;-66
2022/11/10 09:40:22;;;;;;;15.63;3.65;;;;;;;19.62;57.44;102233.34;5045147;28;20037;-66
2022/11/10 09:42:47;;;;;;;;;;;;;;;20.19;58.66;102235.75;5043777;28;20037;-67
2022/11/10 09:45:19;;;;;;;13.35;3.42;;;;;;;19.70;55.23;102235.69;5044464;28;20294;-66
2022/11/10 09:47:59;;;;;;;13.13;3.35;;;;;;;19.87;55.13;102237.56;5042883;28;20030;-67
2022/11/10 09:50:49;;;;;;;13.20;3.38;;;;;;;20.09;55.60;102245.94;5044948;28;20036;-67
2022/11/10 09:53:28;;;;;;;12.80;3.40;;;;;;;20.56;52.52;102234.19;5031934;28;20064;-66
2022/11/10 09:55:59;;;;;;;13.77;3.03;;;;;;;21.01;51.09;102230.97;5029975;28;20112;-66
2022/11/10 09:58:32;;;;;;;14.18;3.20;;;;;;;21.26;49.97;102221.94;5044807;28;20040;-66
2022/11/10 10:01:44;;;;;;;12.80;4.07;;;;;;;21.15;52.20;102235.00;5044910;28;20060;-65
2022/11/10 10:04:37;;;;;;;14.05;4.05;;;;;;;20.84;51.31;102236.72;5044695;28;20483;-66
2022/11/10 10:07:11;;;;;;;16.38;3.40;;;;;;;20.34;52.40;102239.81;5044331;28;20052;-67
2022/11/10 10:09:52;;;;;;;13.43;3.25;;;;;;;20.64;52.25;102237.38;5044095;28;20025;-67
2022/11/10 10:12:24;;;;;;;10.93;3.03;;;;;;;20.90;50.03;102238.44;5044812;28;20086;-66
2022/11/10 10:15:09;;;;;;;13.50;3.25;;;;;;;21.33;50.33;102250.50;5044707;28;20025;-67
2022/11/10 10:17:39;;;;;;;12.90;3.65;;;;;;;21.66;49.03;102257.72;5044431;28;20029;-67
2022/11/10 10:20:18;;;;;;;12.80;3.15;;;;;;;22.13;49.06;102259.66;5044597;28;20399;-65
2022/11/10 10:23:07;;;;;;;11.05;3.38;;;;;;;22.00;48.25;102269.38;5043774;28;20060;-65
2022/11/10 10:25:32;;;;;;;10.90;3.38;;;;;;;22.13;46.62;102268.03;5043109;28;20055;-66
2022/11/10 10:28:14;;;;;;;11.38;3.10;;;;;;;22.12;47.45;102271.97;5038729;28;20026;-67
2022/11/10 10:30:40;;;;;;;13.73;3.92;;;;;;;21.76;47.65;102273.72;5044826;28;20391;-65
2022/11/10 10:33:23;;;;;;;12.50;3.10;;;;;;;21.73;49.54;102272.28;5044456;28;20475;-66
2022/11/10 10:35:49;;;;;;;13.68;3.25;;;;;;;21.85;47.55;102279.66;5044126;28;20111;-66
2022/11/10 10:38:25;;;;;;;9.80;2.95;;;;;;;21.59;48.21;102290.66;5044179;28;20058;-65
2022/11/10 10:40:51;;;;;;;12.73;3.20;;;;;;;21.67;47.26;102295.75;5044181;28;20028;-67
2022/11/10 10:43:17;;;;;;;10.77;3.17;;;;;;;22.36;46.70;102302.28;5044523;28;20028;-66
2022/11/10 10:45:42;;;;;;;11.07;3.20;;;;;;;23.38;44.89;102308.88;5040148;28;20037;-66
2022/11/10 10:48:29;;;;;;;13.05;3.28;;;;;;;23.85;44.75;102313.31;5044826;28;20075;-66
2022/11/10 10:50:54;;;;;;;12.52;3.80;;;;;;;23.51;42.94;102319.50;5043635;28;20411;-65
2022/11/10 10:53:21;;;;;;;13.47;3.33;;;;;;;23.00;44.20;102319.53;5043718;28;20031;-67
2022/11/10 10:55:59;;;;;;;14.88;3.42;;;;;;;23.19;45.41;102317.00;5043117;28;20424;-66
2022/11/10 10:58:34;;;;;;;13.15;3.25;;;;;;;23.42;44.90;102320.34;5043993;28;20077;-65
2022/11/10 11:01:28;;;;;;;12.68;3.20;;;;;;;23.56;45.82;102313.06;5042889;28;20668;-67
2022/11/10 11:03:53;;;;;;;12.48;3.40;;;;;;;23.95;42.31;102301.22;5036171;28;20036;-65
2022/11/10 11:06:24;;;;;;;11.75;3.65;;;;;;;23.53;43.21;102314.47;5043814;28;20463;-66
2022/11/10 11:09:14;;;;;;;11.98;2.92;;;;;;;23.22;45.72;102310.84;5044442;28;20021;-68
2022/11/10 11:11:41;;;;;;;12.85;3.35;;;;;;;22.01;45.35;102313.00;5044393;28;20426;-65
2022/11/10 11:14:21;;;;;;;10.88;2.72;;;;;;;21.24;48.13;102302.41;5043259;28;20426;-65
2022/11/10 11:16:51;;;;;;;12.93;2.85;;;;;;;20.94;48.59;102308.56;5044784;28;20057;-65
2022/11/10 11:19:18;;;;;;;8.02;2.50;;;;;;;21.42;47.82;102309.56;5044628;28;20063;-66
2022/11/10 11:21:54;;;;;;;11.40;3.55;;;;;;;21.85;47.06;102296.44;5032188;28;20033;-66
2022/11/10 11:24:39;;;;;;;12.88;2.70;;;;;;;22.51;46.55;102296.72;5033217;28;20094;-66
2022/11/10 11:27:22;;;;;;;10.70;2.67;;;;;;;22.93;47.00;102290.94;5044200;28;20064;-66
2022/11/10 11:30:05;;;;;;;11.00;2.60;;;;;;;23.41;45.62;102299.06;5044077;28;20029;-66
2022/11/10 11:32:55;;;;;;;13.65;2.85;;;;;;;22.95;44.38;102307.47;5043030;28;20087;-65
2022/11/10 11:35:48;;;;;;;12.60;2.40;;;;;;;22.00;47.08;102313.31;5041976;28;20025;-65